Time;durP1;ratioP1;P1;durP2;ratioP2;P2;SDS_P1;SDS_P2;PMS_P1;PMS_P2;Temp;Humidity;BMP_temperature;BMP_pressure;BME280_temperature;BME280_humidity;BME280_pressure;Samples;Min_cycle;Max_cycle;Signal;HPM_P1;HPM_P2
2021/09/03 00:02:09;;;;;;;;;;;20.40;64.80;;;;;;4988347;28;1969;-77
2021/09/03 00:04:34;;;;;;;;;;;20.40;65.20;;;;;;4951949;28;1246;-77
2021/09/03 00:07:00;;;;;;;;;;;20.40;66.00;;;;;;4964340;28;1100;-77
2021/09/03 00:09:25;;;;;;;;;;;20.40;64.70;;;;;;4984972;28;1053;-78
2021/09/03 00:11:51;;;;;;;;;;;20.40;64.80;;;;;;4970689;28;1082;-77
2021/09/03 00:14:16;;;;;;;;;;;20.40;64.80;;;;;;4984722;28;1270;-77
2021/09/03 00:16:41;;;;;;;;;;;20.40;65.00;;;;;;4991464;28;1025;-77
2021/09/03 00:19:07;;;;;;;;;;;20.40;65.00;;;;;;4984691;28;1054;-77
2021/09/03 00:21:33;;;;;;;;;;;20.40;65.00;;;;;;4981366;28;1903;-77
2021/09/03 00:23:58;;;;;;;;;;;20.40;64.70;;;;;;4951530;28;1236;-77
2021/09/03 00:26:23;;;;;;;;;;;20.40;64.90;;;;;;5002871;28;1101;-77
2021/09/03 00:28:49;;;;;;;;;;;20.40;64.70;;;;;;4951956;28;1109;-77
2021/09/03 00:31:14;;;;;;;;;;;20.40;64.60;;;;;;4970632;28;1397;-77
2021/09/03 00:33:40;;;;;;;;;;;20.40;64.70;;;;;;4983031;28;1238;-77
2021/09/03 00:36:05;;;;;;;;;;;20.30;64.10;;;;;;4981320;28;1116;-77
2021/09/03 00:38:31;;;;;;;;;;;20.40;64.20;;;;;;4968825;28;1109;-77
2021/09/03 00:40:56;;;;;;;;;;;20.30;64.20;;;;;;4969942;28;1907;-77
2021/09/03 00:43:21;;;;;;;;;;;20.40;64.30;;;;;;4965367;28;1253;-77
2021/09/03 00:45:47;;;;;;;;;;;20.30;64.50;;;;;;4959092;28;1313;-77
2021/09/03 00:48:12;;;;;;;;;;;20.30;64.30;;;;;;4986050;28;1196;-77
2021/09/03 00:50:38;;;;;;;;;;;20.30;64.50;;;;;;4985864;28;1176;-77
2021/09/03 00:53:04;;;;;;;;;;;20.30;64.10;;;;;;4967169;28;1283;-77
2021/09/03 00:55:29;;;;;;;;;;;20.30;64.30;;;;;;4978101;28;1168;-77
2021/09/03 00:57:55;;;;;;;;;;;20.30;64.10;;;;;;4984757;28;1115;-77
2021/09/03 01:00:20;;;;;;;;;;;20.30;64.40;;;;;;4970150;28;1888;-78
2021/09/03 01:02:46;;;;;;;;;;;20.30;64.20;;;;;;4983062;28;1370;-77
2021/09/03 01:05:11;;;;;;;;;;;20.30;64.10;;;;;;4963184;28;1081;-77
2021/09/03 01:07:37;;;;;;;;;;;20.40;64.30;;;;;;4967916;28;1148;-77
2021/09/03 01:10:03;;;;;;;;;;;20.30;64.30;;;;;;4969436;28;1069;-77
2021/09/03 01:12:28;;;;;;;;;;;20.30;64.10;;;;;;4965419;28;1274;-77
2021/09/03 01:14:53;;;;;;;;;;;20.30;64.10;;;;;;4973713;28;1280;-77
2021/09/03 01:17:19;;;;;;;;;;;20.30;64.20;;;;;;4982496;28;1144;-77
2021/09/03 01:19:44;;;;;;;;;;;20.30;64.20;;;;;;4963212;28;986;-77
2021/09/03 01:22:10;;;;;;;;;;;20.30;64.20;;;;;;4968153;28;1942;-77
2021/09/03 01:24:35;;;;;;;;;;;20.30;64.40;;;;;;4987514;28;1307;-77
2021/09/03 01:27:01;;;;;;;;;;;20.30;64.40;;;;;;4987647;28;1057;-77
2021/09/03 01:29:26;;;;;;;;;;;20.30;65.10;;;;;;4993115;28;1053;-77
2021/09/03 01:31:51;;;;;;;;;;;20.30;64.40;;;;;;4970076;28;1167;-78
2021/09/03 01:34:17;;;;;;;;;;;20.30;64.20;;;;;;4985223;28;1290;-77
2021/09/03 01:36:42;;;;;;;;;;;20.30;64.20;;;;;;4982332;28;1316;-77
2021/09/03 01:39:08;;;;;;;;;;;20.30;64.10;;;;;;4983699;28;1402;-77
2021/09/03 01:41:33;;;;;;;;;;;20.30;64.80;;;;;;4982242;28;1957;-76
2021/09/03 01:43:59;;;;;;;;;;;20.30;64.10;;;;;;4949733;28;1367;-78
2021/09/03 01:46:24;;;;;;;;;;;20.30;64.10;;;;;;4984054;28;1233;-76
2021/09/03 01:48:49;;;;;;;;;;;20.30;64.30;;;;;;4984501;28;1182;-77
2021/09/03 01:51:15;;;;;;;;;;;20.30;63.90;;;;;;4984522;28;1280;-77
2021/09/03 01:53:40;;;;;;;;;;;20.30;64.50;;;;;;4962218;28;1395;-76
2021/09/03 01:56:06;;;;;;;;;;;20.30;64.60;;;;;;4969851;28;1301;-75
2021/09/03 01:58:31;;;;;;;;;;;20.30;63.90;;;;;;4966371;28;1249;-75
2021/09/03 02:00:57;;;;;;;;;;;20.30;64.40;;;;;;4968236;28;1907;-74
2021/09/03 02:03:22;;;;;;;;;;;20.30;64.10;;;;;;4984200;28;1363;-76
2021/09/03 02:05:47;;;;;;;;;;;20.30;64.10;;;;;;4965934;28;1178;-76
2021/09/03 02:08:13;;;;;;;;;;;20.30;64.40;;;;;;4965043;28;1288;-76
2021/09/03 02:10:38;;;;;;;;;;;20.30;63.90;;;;;;4985518;28;1177;-77
2021/09/03 02:13:04;;;;;;;;;;;20.20;63.50;;;;;;4969221;28;1297;-76
2021/09/03 02:15:29;;;;;;;;;;;20.20;64.10;;;;;;4986681;28;1084;-76
2021/09/03 02:17:55;;;;;;;;;;;20.20;63.90;;;;;;4986487;28;1198;-76
2021/09/03 02:20:20;;;;;;;;;;;20.20;63.70;;;;;;4962650;28;1906;-76
2021/09/03 02:22:48;;;;;;;;;;;20.20;63.50;;;;;;4963075;28;1262;-76
2021/09/03 02:25:14;;;;;;;;;;;20.20;63.60;;;;;;4980858;28;986;-77
2021/09/03 02:27:39;;;;;;;;;;;20.20;63.80;;;;;;4999777;28;1284;-76
2021/09/03 02:30:05;;;;;;;;;;;20.20;64.50;;;;;;4975639;28;1232;-77
2021/09/03 02:32:31;;;;;;;;;;;20.20;64.00;;;;;;4975619;28;1364;-76
2021/09/03 02:34:56;;;;;;;;;;;20.20;64.10;;;;;;4975374;28;1401;-77
2021/09/03 02:37:22;;;;;;;;;;;20.20;64.70;;;;;;4993132;28;1084;-77
2021/09/03 02:39:47;;;;;;;;;;;20.20;63.80;;;;;;4992689;28;1338;-77
2021/09/03 02:42:12;;;;;;;;;;;20.20;63.90;;;;;;4976667;28;1903;-77
2021/09/03 02:44:38;;;;;;;;;;;20.20;63.80;;;;;;4996177;28;1364;-77
2021/09/03 02:47:03;;;;;;;;;;;20.20;63.80;;;;;;4996680;28;1354;-77
2021/09/03 02:49:29;;;;;;;;;;;20.20;63.70;;;;;;4962745;28;1124;-74
2021/09/03 02:51:54;;;;;;;;;;;20.20;63.40;;;;;;4979304;28;1120;-76
2021/09/03 02:54:19;;;;;;;;;;;20.20;64.30;;;;;;4982771;28;1235;-77
2021/09/03 02:56:45;;;;;;;;;;;20.20;63.40;;;;;;5001880;28;1160;-77
2021/09/03 02:59:10;;;;;;;;;;;20.20;63.80;;;;;;4977013;28;1215;-76
2021/09/03 03:01:36;;;;;;;;;;;20.20;63.30;;;;;;4977078;28;1962;-75
2021/09/03 03:04:01;;;;;;;;;;;20.20;63.20;;;;;;4958944;28;1208;-74
2021/09/03 03:06:27;;;;;;;;;;;20.20;63.60;;;;;;4959505;28;1271;-74
2021/09/03 03:08:52;;;;;;;;;;;20.20;64.10;;;;;;4982063;28;1370;-74
2021/09/03 03:11:17;;;;;;;;;;;20.20;64.10;;;;;;4996125;28;1389;-74
2021/09/03 03:13:47;;;;;;;;;;;20.20;63.40;;;;;;4959587;28;1687;-74
2021/09/03 03:16:14;;;;;;;;;;;20.20;63.60;;;;;;4976532;28;1317;-75
2021/09/03 03:18:39;;;;;;;;;;;20.20;64.00;;;;;;4982774;28;1447;-75
2021/09/03 03:21:05;;;;;;;;;;;20.20;64.10;;;;;;4978538;28;1906;-74
2021/09/03 03:23:30;;;;;;;;;;;20.20;64.20;;;;;;4982120;28;1368;-76
2021/09/03 03:25:56;;;;;;;;;;;20.20;63.90;;;;;;4989711;28;1213;-76
2021/09/03 03:28:21;;;;;;;;;;;20.10;63.40;;;;;;4972878;28;1199;-76
2021/09/03 03:30:46;;;;;;;;;;;20.20;63.00;;;;;;4988640;28;1077;-76
2021/09/03 03:33:12;;;;;;;;;;;20.20;63.10;;;;;;4964972;28;1301;-76
2021/09/03 03:35:37;;;;;;;;;;;20.20;64.10;;;;;;4983659;28;1156;-76
2021/09/03 03:38:03;;;;;;;;;;;20.10;63.50;;;;;;4989142;28;1076;-76
2021/09/03 03:40:28;;;;;;;;;;;20.20;63.80;;;;;;4970763;28;1910;-76
2021/09/03 03:42:54;;;;;;;;;;;20.20;64.00;;;;;;4965200;28;1769;-76
2021/09/03 03:45:19;;;;;;;;;;;20.10;62.70;;;;;;4977988;28;1409;-75
2021/09/03 03:47:45;;;;;;;;;;;20.10;62.90;;;;;;4995492;28;1305;-76
2021/09/03 03:50:10;;;;;;;;;;;20.10;63.40;;;;;;4977993;28;1242;-76
2021/09/03 03:52:36;;;;;;;;;;;20.10;62.90;;;;;;4994691;28;1220;-76
2021/09/03 03:55:01;;;;;;;;;;;20.10;63.70;;;;;;4981754;28;1364;-76
2021/09/03 03:57:27;;;;;;;;;;;20.10;63.40;;;;;;4979692;28;1391;-75
2021/09/03 03:59:52;;;;;;;;;;;20.10;63.60;;;;;;4995286;28;1395;-76
2021/09/03 04:02:17;;;;;;;;;;;20.10;63.20;;;;;;4972776;28;1903;-76
2021/09/03 04:04:43;;;;;;;;;;;20.10;62.70;;;;;;4975440;28;1277;-76
2021/09/03 04:07:08;;;;;;;;;;;20.10;62.80;;;;;;4958215;28;1358;-75
2021/09/03 04:09:34;;;;;;;;;;;20.10;62.80;;;;;;4958257;28;1451;-76
2021/09/03 04:11:59;;;;;;;;;;;20.10;62.70;;;;;;4957889;28;1449;-77
2021/09/03 04:14:25;;;;;;;;;;;20.10;63.00;;;;;;4975256;28;1189;-76
2021/09/03 04:16:50;;;;;;;;;;;20.10;62.90;;;;;;4975794;28;1400;-76
2021/09/03 04:19:15;;;;;;;;;;;20.10;62.50;;;;;;4942156;28;1297;-76
2021/09/03 04:21:41;;;;;;;;;;;20.10;63.00;;;;;;4957923;28;1899;-76
2021/09/03 04:24:06;;;;;;;;;;;20.10;62.70;;;;;;4974978;28;1197;-77
2021/09/03 04:26:32;;;;;;;;;;;20.10;63.40;;;;;;4985549;28;1334;-76
2021/09/03 04:28:57;;;;;;;;;;;20.10;63.00;;;;;;4966469;28;1069;-76
2021/09/03 04:31:23;;;;;;;;;;;20.10;62.80;;;;;;4941911;28;1179;-77
2021/09/03 04:33:48;;;;;;;;;;;20.10;63.50;;;;;;4974826;28;1362;-75
2021/09/03 04:36:16;;;;;;;;;;;20.10;63.30;;;;;;4974949;28;1289;-76
2021/09/03 04:38:42;;;;;;;;;;;20.10;62.80;;;;;;4975121;28;1274;-77
2021/09/03 04:41:07;;;;;;;;;;;20.10;63.40;;;;;;4975127;28;1919;-76
2021/09/03 04:43:33;;;;;;;;;;;20.00;63.00;;;;;;4974588;28;1383;-77
2021/09/03 04:45:58;;;;;;;;;;;20.10;62.80;;;;;;4957689;28;1344;-77
2021/09/03 04:48:24;;;;;;;;;;;20.10;63.20;;;;;;4957531;28;1137;-76
2021/09/03 04:50:51;;;;;;;;;;;20.10;62.60;;;;;;4991935;28;1191;-76
2021/09/03 04:53:17;;;;;;;;;;;20.10;62.50;;;;;;4982876;28;1263;-77
2021/09/03 04:55:42;;;;;;;;;;;20.00;62.90;;;;;;4963986;28;1266;-76
2021/09/03 04:58:07;;;;;;;;;;;20.00;62.70;;;;;;4983128;28;1128;-77
2021/09/03 05:00:33;;;;;;;;;;;20.00;62.50;;;;;;4988271;28;1951;-76
2021/09/03 05:02:58;;;;;;;;;;;20.00;62.60;;;;;;4968052;28;1265;-76
2021/09/03 05:05:24;;;;;;;;;;;20.00;62.80;;;;;;4975745;28;1274;-76
2021/09/03 05:07:49;;;;;;;;;;;20.00;62.80;;;;;;4993913;28;1390;-76
2021/09/03 05:10:14;;;;;;;;;;;20.00;62.60;;;;;;4976455;28;1099;-74
2021/09/03 05:12:40;;;;;;;;;;;20.00;62.50;;;;;;4974708;28;1289;-75
2021/09/03 05:15:06;;;;;;;;;;;20.00;62.30;;;;;;4956747;28;1367;-75
2021/09/03 05:17:32;;;;;;;;;;;20.00;62.40;;;;;;4957374;28;1612;-75
2021/09/03 05:19:57;;;;;;;;;;;20.00;62.90;;;;;;4974200;28;1288;-75
2021/09/03 05:22:23;;;;;;;;;;;20.00;62.60;;;;;;4974343;28;1954;-75
2021/09/03 05:24:48;;;;;;;;;;;20.00;62.50;;;;;;4979724;28;1356;-74
2021/09/03 05:27:13;;;;;;;;;;;20.00;62.70;;;;;;5002909;28;1249;-75
2021/09/03 05:29:39;;;;;;;;;;;20.00;62.50;;;;;;4993620;28;1120;-75
2021/09/03 05:32:04;;;;;;;;;;;20.00;62.40;;;;;;4983314;28;1072;-75
2021/09/03 05:34:30;;;;;;;;;;;20.00;62.50;;;;;;4974027;28;1302;-76
2021/09/03 05:36:55;;;;;;;;;;;20.00;63.20;;;;;;4974109;28;1296;-75
2021/09/03 05:39:21;;;;;;;;;;;20.00;63.00;;;;;;4956763;28;1286;-75
2021/09/03 05:41:47;;;;;;;;;;;20.00;62.60;;;;;;4956920;28;1910;-75
2021/09/03 05:44:12;;;;;;;;;;;20.00;62.80;;;;;;4969291;28;1336;-76
2021/09/03 05:46:37;;;;;;;;;;;20.00;62.80;;;;;;4984063;28;1132;-76
2021/09/03 05:49:03;;;;;;;;;;;20.00;62.70;;;;;;4980194;28;1128;-76
2021/09/03 05:51:28;;;;;;;;;;;20.00;62.80;;;;;;4993377;28;1105;-76
2021/09/03 05:53:54;;;;;;;;;;;20.00;62.80;;;;;;4993033;28;1388;-75
2021/09/03 05:56:19;;;;;;;;;;;20.00;63.10;;;;;;4961898;28;1101;-76
2021/09/03 05:58:45;;;;;;;;;;;20.00;63.50;;;;;;4984509;28;1917;-72
2021/09/03 06:01:10;;;;;;;;;;;20.00;62.90;;;;;;4987973;28;2026;-71
2021/09/03 06:03:35;;;;;;;;;;;20.00;63.00;;;;;;4976222;28;1291;-72
2021/09/03 06:06:01;;;;;;;;;;;20.00;63.30;;;;;;4975944;28;1188;-74
2021/09/03 06:08:26;;;;;;;;;;;20.00;63.00;;;;;;4994412;28;1101;-74
2021/09/03 06:10:52;;;;;;;;;;;20.00;63.20;;;;;;4978330;28;1232;-76
2021/09/03 06:13:17;;;;;;;;;;;20.00;63.20;;;;;;4962731;28;1350;-75
2021/09/03 06:15:43;;;;;;;;;;;19.90;64.20;;;;;;4963736;28;1194;-75
2021/09/03 06:18:08;;;;;;;;;;;20.00;66.20;;;;;;4965890;28;1398;-74
2021/09/03 06:20:34;;;;;;;;;;;20.00;66.90;;;;;;4965306;28;1956;-72
2021/09/03 06:22:59;;;;;;;;;;;20.00;66.90;;;;;;4996963;28;1375;-74
2021/09/03 06:25:25;;;;;;;;;;;20.00;66.50;;;;;;5003908;28;1229;-73
2021/09/03 06:27:50;;;;;;;;;;;20.10;67.70;;;;;;5001512;28;1049;-74
2021/09/03 06:30:16;;;;;;;;;;;20.10;67.50;;;;;;4988644;28;1096;-72
2021/09/03 06:32:41;;;;;;;;;;;20.10;67.20;;;;;;4988969;28;1801;-72
2021/09/03 06:35:07;;;;;;;;;;;20.10;67.20;;;;;;4978799;28;1319;-72
2021/09/03 06:37:33;;;;;;;;;;;20.10;67.80;;;;;;4996926;28;1400;-74
2021/09/03 06:39:58;;;;;;;;;;;20.10;67.00;;;;;;4979399;28;1328;-74
2021/09/03 06:42:23;;;;;;;;;;;20.10;68.10;;;;;;4979259;28;1959;-71
2021/09/03 06:44:49;;;;;;;;;;;20.10;68.10;;;;;;4996301;28;1287;-71
2021/09/03 06:47:16;;;;;;;;;;;20.20;67.70;;;;;;4963035;28;1274;-72
2021/09/03 06:49:41;;;;;;;;;;;20.20;68.30;;;;;;4978387;28;2185;-71
2021/09/03 06:52:07;;;;;;;;;;;20.20;67.80;;;;;;4980530;28;1149;-72
2021/09/03 06:54:33;;;;;;;;;;;20.20;67.70;;;;;;4999412;28;1192;-74
2021/09/03 06:56:58;;;;;;;;;;;20.20;68.00;;;;;;5003697;28;1158;-74
2021/09/03 06:59:24;;;;;;;;;;;20.20;67.80;;;;;;4963389;28;1498;-74
2021/09/03 07:01:49;;;;;;;;;;;20.20;67.50;;;;;;4979330;28;1955;-74
2021/09/03 07:04:15;;;;;;;;;;;20.20;67.60;;;;;;5000741;28;1226;-74
2021/09/03 07:06:40;;;;;;;;;;;20.20;67.30;;;;;;4971960;28;1148;-75
2021/09/03 07:09:06;;;;;;;;;;;20.20;67.60;;;;;;4982948;28;1266;-74
2021/09/03 07:11:32;;;;;;;;;;;20.30;67.70;;;;;;4981625;28;1301;-74
2021/09/03 07:13:58;;;;;;;;;;;20.30;67.30;;;;;;4959150;28;1321;-73
2021/09/03 07:16:27;;;;;;;;;;;20.20;67.20;;;;;;4973799;28;1332;-74
2021/09/03 07:18:52;;;;;;;;;;;20.20;67.30;;;;;;4987747;28;1313;-74
2021/09/03 07:21:17;;;;;;;;;;;20.30;67.00;;;;;;4959129;28;1948;-74
2021/09/03 07:23:43;;;;;;;;;;;20.30;67.10;;;;;;4976211;28;1402;-74
2021/09/03 07:26:08;;;;;;;;;;;20.30;67.10;;;;;;5001853;28;1284;-74
2021/09/03 07:28:34;;;;;;;;;;;20.30;67.20;;;;;;4977671;28;1309;-74
2021/09/03 07:30:59;;;;;;;;;;;20.20;67.10;;;;;;4994983;28;1357;-74
2021/09/03 07:33:25;;;;;;;;;;;20.30;67.40;;;;;;4975684;28;1320;-74
2021/09/03 07:35:50;;;;;;;;;;;20.20;67.40;;;;;;4959300;28;1340;-77
2021/09/03 07:38:16;;;;;;;;;;;20.30;67.40;;;;;;4969129;28;1156;-75
2021/09/03 07:40:41;;;;;;;;;;;20.30;67.40;;;;;;4981274;28;1907;-76
2021/09/03 07:43:07;;;;;;;;;;;20.30;67.60;;;;;;4988650;28;1257;-78
2021/09/03 07:45:36;;;;;;;;;;;20.30;67.90;;;;;;4974579;28;1375;-77
2021/09/03 07:48:02;;;;;;;;;;;20.30;67.90;;;;;;4965744;28;1085;-76
2021/09/03 07:50:27;;;;;;;;;;;20.30;67.70;;;;;;4995484;28;1163;-76
2021/09/03 07:52:53;;;;;;;;;;;20.30;67.70;;;;;;4995538;28;1284;-76
2021/09/03 07:55:18;;;;;;;;;;;20.30;67.70;;;;;;4982113;28;1112;-76
2021/09/03 07:57:43;;;;;;;;;;;20.30;67.50;;;;;;4987812;28;1152;-76
2021/09/03 08:00:09;;;;;;;;;;;20.30;67.70;;;;;;4988874;28;1046;-76
2021/09/03 08:02:35;;;;;;;;;;;20.30;67.80;;;;;;4966046;28;2245;-76
2021/09/03 08:05:00;;;;;;;;;;;20.30;67.90;;;;;;4976465;28;1271;-75
2021/09/03 08:07:28;;;;;;;;;;;20.30;67.90;;;;;;4958455;28;1659;-74
2021/09/03 08:09:54;;;;;;;;;;;20.30;67.90;;;;;;4973795;28;1182;-75
2021/09/03 08:12:19;;;;;;;;;;;20.30;68.10;;;;;;4947816;28;1186;-75
2021/09/03 08:14:45;;;;;;;;;;;20.30;68.30;;;;;;4975520;28;1334;-75
2021/09/03 08:17:10;;;;;;;;;;;20.30;68.50;;;;;;4971438;28;1159;-75
2021/09/03 08:19:35;;;;;;;;;;;20.30;68.40;;;;;;4985528;28;1128;-76
2021/09/03 08:22:01;;;;;;;;;;;20.30;68.80;;;;;;4987087;28;1911;-75
2021/09/03 08:24:26;;;;;;;;;;;20.30;68.80;;;;;;4996244;28;1462;-76
2021/09/03 08:26:52;;;;;;;;;;;20.30;68.80;;;;;;4978574;28;1144;-76
2021/09/03 08:29:17;;;;;;;;;;;20.30;68.80;;;;;;4994517;28;1076;-76
2021/09/03 08:31:43;;;;;;;;;;;20.30;68.80;;;;;;4994343;28;1187;-74
2021/09/03 08:34:08;;;;;;;;;;;20.30;68.90;;;;;;4981464;28;1276;-74
2021/09/03 08:36:34;;;;;;;;;;;20.30;69.60;;;;;;4990425;28;1068;-75
2021/09/03 08:38:59;;;;;;;;;;;20.30;69.50;;;;;;4993920;28;1124;-73
2021/09/03 08:41:24;;;;;;;;;;;20.30;69.70;;;;;;4986818;28;1903;-74
2021/09/03 08:43:54;;;;;;;;;;;20.30;69.70;;;;;;4987636;28;1355;-74
2021/09/03 08:46:20;;;;;;;;;;;20.30;69.70;;;;;;4982297;28;1082;-75
2021/09/03 08:48:46;;;;;;;;;;;20.30;69.80;;;;;;4963649;28;1081;-74
2021/09/03 08:51:11;;;;;;;;;;;20.30;70.20;;;;;;4994302;28;1223;-74
2021/09/03 08:53:38;;;;;;;;;;;20.30;70.60;;;;;;4980715;28;1280;-72
2021/09/03 08:56:03;;;;;;;;;;;20.30;71.20;;;;;;4982114;28;1160;-71
2021/09/03 08:58:29;;;;;;;;;;;20.40;70.60;;;;;;4960643;28;1292;-72
2021/09/03 09:01:07;;;;;;;;;;;20.40;70.40;;;;;;4993937;28;1944;-72
2021/09/03 09:03:33;;;;;;;;;;;20.40;70.60;;;;;;4993647;28;1267;-73
2021/09/03 09:05:59;;;;;;;;;;;20.40;70.90;;;;;;4994220;28;1242;-73
2021/09/03 09:08:25;;;;;;;;;;;20.50;70.70;;;;;;4993945;28;1265;-74
2021/09/03 09:11:00;;;;;;;;;;;20.40;70.90;;;;;;4976749;28;1069;-73
2021/09/03 09:13:27;;;;;;;;;;;20.50;71.50;;;;;;4993368;28;1349;-73
2021/09/03 09:15:56;;;;;;;;;;;20.50;71.60;;;;;;4976528;28;1291;-73
2021/09/03 09:18:30;;;;;;;;;;;20.50;71.30;;;;;;4976498;28;1286;-74
2021/09/03 09:21:09;;;;;;;;;;;20.50;71.50;;;;;;4993955;28;1894;-75
2021/09/03 09:23:40;;;;;;;;;;;20.60;72.80;;;;;;4993273;28;1314;-73
2021/09/03 09:26:05;;;;;;;;;;;20.60;75.00;;;;;;5005338;28;1098;-74
2021/09/03 09:28:33;;;;;;;;;;;20.70;73.60;;;;;;4993899;28;1364;-74
2021/09/03 09:30:59;;;;;;;;;;;20.70;73.80;;;;;;4993767;28;1298;-74
2021/09/03 09:33:24;;;;;;;;;;;20.70;73.40;;;;;;4993417;28;1358;-74
2021/09/03 09:35:50;;;;;;;;;;;20.70;73.20;;;;;;4993693;28;1408;-74
2021/09/03 09:38:17;;;;;;;;;;;20.70;74.20;;;;;;4976334;28;1383;-74
2021/09/03 09:40:46;;;;;;;;;;;20.70;74.50;;;;;;4976105;28;1906;-74
2021/09/03 09:43:24;;;;;;;;;;;20.70;74.40;;;;;;4993591;28;1480;-74
2021/09/03 09:46:19;;;;;;;;;;;20.70;74.00;;;;;;4993582;28;1105;-74
2021/09/03 09:48:48;;;;;;;;;;;20.70;74.50;;;;;;4954214;28;1304;-74
2021/09/03 09:51:17;;;;;;;;;;;20.70;74.40;;;;;;4990095;28;1194;-74
2021/09/03 09:53:42;;;;;;;;;;;20.70;74.20;;;;;;4966932;28;1399;-72
2021/09/03 09:56:09;;;;;;;;;;;20.70;73.70;;;;;;4968998;28;1222;-73
2021/09/03 09:58:34;;;;;;;;;;;20.70;73.40;;;;;;4967653;28;1218;-73
2021/09/03 10:01:00;;;;;;;;;;;20.70;73.20;;;;;;4967862;28;1906;-74
2021/09/03 10:03:25;;;;;;;;;;;20.70;73.90;;;;;;4968035;28;1356;-74
2021/09/03 10:05:50;;;;;;;;;;;20.80;74.30;;;;;;4966312;28;1258;-74
2021/09/03 10:08:16;;;;;;;;;;;20.90;74.70;;;;;;4964815;28;1277;-73
2021/09/03 10:10:41;;;;;;;;;;;20.90;75.30;;;;;;4963670;28;1226;-74
2021/09/03 10:13:07;;;;;;;;;;;20.90;74.80;;;;;;4963902;28;1339;-73
2021/09/03 10:15:33;;;;;;;;;;;21.00;76.40;;;;;;4974406;28;1266;-74
2021/09/03 10:17:58;;;;;;;;;;;21.00;76.90;;;;;;4956444;28;1300;-74
2021/09/03 10:20:23;;;;;;;;;;;21.00;75.20;;;;;;4973711;28;1275;-75
2021/09/03 10:22:50;;;;;;;;;;;21.00;74.40;;;;;;4958157;28;1966;-75
2021/09/03 10:25:15;;;;;;;;;;;21.00;73.70;;;;;;4985690;28;1302;-75
2021/09/03 10:27:40;;;;;;;;;;;21.00;73.80;;;;;;5000210;28;1244;-74
2021/09/03 10:30:16;;;;;;;;;;;21.00;73.40;;;;;;4975339;28;1363;-75
2021/09/03 10:32:42;;;;;;;;;;;21.00;73.60;;;;;;4975474;28;1414;-75
2021/09/03 10:35:15;;;;;;;;;;;21.00;73.20;;;;;;4992541;28;1286;-74
2021/09/03 10:37:41;;;;;;;;;;;20.90;72.90;;;;;;4976055;28;1101;-75
2021/09/03 10:40:10;;;;;;;;;;;20.90;73.20;;;;;;4992978;28;1269;-75
2021/09/03 10:42:36;;;;;;;;;;;20.90;73.00;;;;;;4975207;28;1915;-75
2021/09/03 10:45:11;;;;;;;;;;;20.90;73.30;;;;;;4992772;28;1288;-76
2021/09/03 10:47:42;;;;;;;;;;;20.90;73.30;;;;;;4994172;28;1280;-76
2021/09/03 10:50:11;;;;;;;;;;;20.90;73.20;;;;;;4994991;28;1229;-76
2021/09/03 10:52:36;;;;;;;;;;;20.90;73.10;;;;;;4999958;28;1375;-75
2021/09/03 10:55:02;;;;;;;;;;;20.90;72.90;;;;;;4985289;28;1316;-75
2021/09/03 10:57:27;;;;;;;;;;;20.90;72.50;;;;;;4982675;28;1293;-75
2021/09/03 11:00:11;;;;;;;;;;;20.90;72.80;;;;;;4960544;28;1046;-75
2021/09/03 11:02:37;;;;;;;;;;;20.90;72.70;;;;;;4994710;28;1915;-75
2021/09/03 11:05:22;;;;;;;;;;;20.90;72.70;;;;;;4987998;28;1650;-75
2021/09/03 11:07:47;;;;;;;;;;;21.00;72.40;;;;;;4965432;28;1225;-75
2021/09/03 11:10:16;;;;;;;;;;;21.10;72.30;;;;;;4960401;28;1254;-76
2021/09/03 11:12:51;;;;;;;;;;;21.10;72.20;;;;;;4962043;28;1380;-74
2021/09/03 11:15:17;;;;;;;;;;;21.20;72.30;;;;;;4959401;28;1274;-75
2021/09/03 11:17:42;;;;;;;;;;;21.20;72.10;;;;;;4979159;28;1204;-73
2021/09/03 11:20:08;;;;;;;;;;;21.20;72.20;;;;;;4968547;28;1201;-75
2021/09/03 11:22:36;;;;;;;;;;;21.20;72.00;;;;;;4962381;28;1934;-75
2021/09/03 11:25:04;;;;;;;;;;;21.20;72.40;;;;;;4972785;28;1351;-75
2021/09/03 11:27:30;;;;;;;;;;;21.20;73.00;;;;;;4995528;28;1302;-73
2021/09/03 11:30:00;;;;;;;;;;;21.20;73.30;;;;;;4983249;28;1266;-74
2021/09/03 11:32:29;;;;;;;;;;;21.20;72.80;;;;;;5002003;28;1041;-74
2021/09/03 11:34:55;;;;;;;;;;;21.20;74.20;;;;;;4981647;28;1771;-74
2021/09/03 11:37:23;;;;;;;;;;;21.20;74.90;;;;;;4998919;28;1087;-75
2021/09/03 11:39:49;;;;;;;;;;;21.20;75.00;;;;;;4997537;28;1341;-74
2021/09/03 11:42:18;;;;;;;;;;;21.20;74.50;;;;;;4995469;28;1906;-74
2021/09/03 11:44:48;;;;;;;;;;;21.20;75.30;;;;;;4978041;28;1353;-75
2021/09/03 11:47:20;;;;;;;;;;;21.20;74.70;;;;;;4962091;28;1333;-75
2021/09/03 11:49:50;;;;;;;;;;;21.20;74.30;;;;;;4978324;28;1482;-77
2021/09/03 11:52:15;;;;;;;;;;;21.20;74.90;;;;;;4978198;28;1299;-76
2021/09/03 11:54:48;;;;;;;;;;;21.30;74.10;;;;;;4978627;28;1624;-77
2021/09/03 11:57:13;;;;;;;;;;;21.30;72.80;;;;;;4998205;28;1247;-77
2021/09/03 11:59:58;;;;;;;;;;;21.30;72.00;;;;;;4961419;28;1404;-77
2021/09/03 12:02:24;;;;;;;;;;;21.30;71.60;;;;;;4976260;28;1970;-77
2021/09/03 12:04:49;;;;;;;;;;;21.20;71.70;;;;;;4975200;28;1301;-77
2021/09/03 12:07:18;;;;;;;;;;;21.20;71.60;;;;;;4958285;28;1153;-77
2021/09/03 12:09:44;;;;;;;;;;;21.20;71.70;;;;;;4957938;28;1065;-77
2021/09/03 12:12:09;;;;;;;;;;;21.20;71.30;;;;;;4975465;28;1332;-77
2021/09/03 12:14:35;;;;;;;;;;;21.20;70.90;;;;;;4974564;28;1314;-77
2021/09/03 12:17:01;;;;;;;;;;;21.20;70.90;;;;;;4958117;28;1270;-77
2021/09/03 12:19:26;;;;;;;;;;;21.20;71.00;;;;;;4958059;28;1071;-75
2021/09/03 12:21:52;;;;;;;;;;;21.10;70.40;;;;;;4957931;28;1895;-77
2021/09/03 12:24:17;;;;;;;;;;;21.10;70.60;;;;;;4957252;28;1317;-76
2021/09/03 12:26:50;;;;;;;;;;;21.10;70.60;;;;;;4968154;28;1302;-76
2021/09/03 12:29:16;;;;;;;;;;;21.10;70.20;;;;;;4987548;28;1341;-77
2021/09/03 12:31:54;;;;;;;;;;;21.10;69.70;;;;;;4994346;28;1340;-74
2021/09/03 12:34:22;;;;;;;;;;;21.10;69.10;;;;;;4976567;28;1288;-73
2021/09/03 12:36:54;;;;;;;;;;;21.10;69.30;;;;;;4994492;28;1246;-74
2021/09/03 12:39:19;;;;;;;;;;;21.10;69.50;;;;;;4994245;28;1234;-75
2021/09/03 12:41:45;;;;;;;;;;;21.10;69.40;;;;;;4976504;28;1903;-73
2021/09/03 12:44:11;;;;;;;;;;;21.10;69.50;;;;;;4976431;28;1317;-74
2021/09/03 12:46:36;;;;;;;;;;;21.10;69.30;;;;;;4994136;28;1243;-75
2021/09/03 12:49:11;;;;;;;;;;;21.10;68.90;;;;;;4993082;28;1975;-74
2021/09/03 12:51:37;;;;;;;;;;;21.00;69.30;;;;;;4991585;28;1001;-74
2021/09/03 12:54:03;;;;;;;;;;;21.00;68.80;;;;;;4959210;28;1518;-74
2021/09/03 12:56:28;;;;;;;;;;;21.10;68.10;;;;;;4968832;28;1600;-74
2021/09/03 12:58:54;;;;;;;;;;;21.10;68.80;;;;;;4989018;28;1181;-74
2021/09/03 13:01:19;;;;;;;;;;;21.10;67.50;;;;;;4957269;28;1899;-74
2021/09/03 13:03:45;;;;;;;;;;;21.10;68.30;;;;;;4977716;28;1287;-75
2021/09/03 13:06:11;;;;;;;;;;;21.10;68.20;;;;;;4993881;28;1065;-74
2021/09/03 13:08:37;;;;;;;;;;;21.10;66.60;;;;;;4977406;28;1327;-74
2021/09/03 13:11:02;;;;;;;;;;;21.10;66.50;;;;;;4940694;28;1314;-74
2021/09/03 13:13:27;;;;;;;;;;;21.10;67.60;;;;;;4956661;28;1372;-74
2021/09/03 13:15:53;;;;;;;;;;;21.10;67.80;;;;;;4983690;28;1678;-74
2021/09/03 13:18:18;;;;;;;;;;;21.10;67.90;;;;;;4994026;28;1053;-75
2021/09/03 13:20:44;;;;;;;;;;;21.10;68.00;;;;;;4956348;28;1898;-74
2021/09/03 13:23:09;;;;;;;;;;;21.10;67.50;;;;;;4983769;28;1277;-73
2021/09/03 13:25:35;;;;;;;;;;;21.10;67.00;;;;;;4968879;28;1367;-76
2021/09/03 13:28:00;;;;;;;;;;;21.10;67.10;;;;;;4970713;28;1925;-76
2021/09/03 13:30:25;;;;;;;;;;;21.10;67.30;;;;;;4988816;28;1245;-75
2021/09/03 13:32:51;;;;;;;;;;;21.10;66.80;;;;;;4967832;28;1303;-75
2021/09/03 13:35:16;;;;;;;;;;;21.10;66.00;;;;;;4983432;28;1241;-75
2021/09/03 13:37:42;;;;;;;;;;;21.10;65.70;;;;;;4969411;28;1246;-74
2021/09/03 13:40:08;;;;;;;;;;;21.20;65.40;;;;;;4966776;28;1261;-75
2021/09/03 13:42:33;;;;;;;;;;;21.20;66.00;;;;;;4985981;28;1976;-74
2021/09/03 13:44:58;;;;;;;;;;;21.20;65.90;;;;;;4984806;28;1279;-74
2021/09/03 13:47:24;;;;;;;;;;;21.20;66.10;;;;;;4984936;28;1360;-74
2021/09/03 13:49:49;;;;;;;;;;;21.20;66.80;;;;;;4966969;28;1272;-74
2021/09/03 13:52:15;;;;;;;;;;;21.20;65.60;;;;;;4982097;28;1213;-75
2021/09/03 13:54:40;;;;;;;;;;;21.20;66.10;;;;;;4966774;28;1399;-75
2021/09/03 13:57:06;;;;;;;;;;;21.20;65.50;;;;;;4983520;28;1339;-75
2021/09/03 13:59:31;;;;;;;;;;;21.20;66.30;;;;;;4983180;28;1236;-75
2021/09/03 14:01:57;;;;;;;;;;;21.20;66.10;;;;;;4965639;28;1898;-75
2021/09/03 14:04:22;;;;;;;;;;;21.20;65.50;;;;;;4964709;28;1271;-75
2021/09/03 14:06:47;;;;;;;;;;;21.20;65.20;;;;;;4965405;28;1316;-75
2021/09/03 14:09:13;;;;;;;;;;;21.20;64.60;;;;;;4982337;28;1155;-75
2021/09/03 14:11:43;;;;;;;;;;;21.20;65.00;;;;;;4984944;28;1605;-75
2021/09/03 14:14:09;;;;;;;;;;;21.20;65.10;;;;;;4965180;28;1386;-74
2021/09/03 14:16:34;;;;;;;;;;;21.20;65.20;;;;;;4963612;28;1250;-75
2021/09/03 14:19:00;;;;;;;;;;;21.20;65.70;;;;;;4964580;28;1426;-75
2021/09/03 14:21:25;;;;;;;;;;;21.20;66.40;;;;;;4966337;28;1875;-74
2021/09/03 14:23:51;;;;;;;;;;;21.20;66.80;;;;;;4982378;28;1360;-74
2021/09/03 14:26:16;;;;;;;;;;;21.20;68.10;;;;;;4966285;28;1189;-74